createdAt,value
2022-11-28T00:01:24.487Z,6.28
2022-11-28T00:03:51.819Z,8.65
2022-11-28T00:06:19.106Z,9.82
2022-11-28T00:08:46.335Z,10.23
2022-11-28T00:11:14.986Z,8.77
2022-11-28T00:13:42.977Z,8.00
2022-11-28T00:16:16.394Z,8.23
2022-11-28T00:18:44.184Z,8.95
2022-11-28T00:21:13.448Z,7.97
2022-11-28T00:23:41.533Z,8.82
2022-11-28T00:26:10.488Z,7.20
2022-11-28T00:28:37.995Z,8.55
2022-11-28T00:31:05.223Z,7.20
2022-11-28T00:33:33.489Z,7.78
2022-11-28T00:36:02.023Z,7.70
2022-11-28T00:38:29.841Z,9.05
2022-11-28T00:41:16.146Z,7.63
2022-11-28T00:43:44.689Z,8.07
2022-11-28T00:46:13.285Z,7.45
2022-11-28T00:48:41.343Z,9.10
2022-11-28T00:51:23.302Z,6.97
2022-11-28T00:53:51.798Z,8.52
2022-11-28T00:56:24.671Z,7.40
2022-11-28T00:58:52.325Z,7.93
2022-11-28T01:01:25.829Z,9.70
2022-11-28T01:03:55.461Z,18.30
2022-11-28T01:06:24.205Z,8.07
2022-11-28T01:08:51.974Z,7.93
2022-11-28T01:11:19.430Z,7.72
2022-11-28T01:13:46.395Z,8.15
2022-11-28T01:16:13.429Z,10.68
2022-11-28T01:18:40.541Z,7.18
2022-11-28T01:21:08.524Z,7.35
2022-11-28T01:23:36.113Z,6.18
2022-11-28T01:26:05.721Z,5.70
2022-11-28T01:28:33.512Z,6.28
2022-11-28T01:31:21.813Z,5.63
2022-11-28T01:33:49.303Z,6.82
2022-11-28T01:36:17.191Z,8.07
2022-11-28T01:38:44.595Z,6.03
2022-11-28T01:41:12.321Z,6.90
2022-11-28T01:43:57.818Z,6.47
2022-11-28T01:46:24.804Z,7.00
2022-11-28T01:48:52.913Z,9.45
2022-11-28T01:51:20.623Z,7.25
2022-11-28T01:53:48.615Z,5.43
2022-11-28T01:56:23.424Z,10.05
2022-11-28T01:58:56.710Z,10.18
2022-11-28T02:01:25.397Z,7.18
2022-11-28T02:03:53.016Z,8.27
2022-11-28T02:06:23.838Z,8.40
2022-11-28T02:08:54.937Z,8.63
2022-11-28T02:11:36.936Z,9.27
2022-11-28T02:14:25.075Z,8.88
2022-11-28T02:17:21.298Z,8.82
2022-11-28T02:20:06.904Z,10.88
2022-11-28T02:22:51.619Z,7.53
2022-11-28T02:25:43.288Z,10.25
2022-11-28T02:28:47.330Z,9.68
2022-11-28T02:31:44.962Z,11.77
2022-11-28T02:36:55.699Z,11.43
2022-11-28T02:39:45.555Z,11.63
2022-11-28T02:42:23.936Z,10.55
2022-11-28T02:45:05.928Z,9.13
2022-11-28T02:47:36.628Z,11.73
2022-11-28T02:50:22.146Z,12.18
2022-11-28T02:53:02.480Z,9.77
2022-11-28T02:55:29.886Z,9.75
2022-11-28T02:57:56.909Z,9.50
2022-11-28T03:00:28.900Z,13.95
2022-11-28T03:03:23.547Z,11.95
2022-11-28T03:06:10.642Z,13.32
2022-11-28T03:11:55.237Z,13.90
2022-11-28T03:14:42.641Z,10.57
2022-11-28T03:17:24.992Z,14.15
2022-11-28T03:20:10.269Z,14.73
2022-11-28T03:22:48.997Z,9.93
2022-11-28T03:25:37.502Z,11.73
2022-11-28T03:28:11.570Z,11.93
2022-11-28T03:30:46.070Z,13.45
2022-11-28T03:33:16.468Z,12.90
2022-11-28T03:35:54.577Z,10.13
2022-11-28T03:38:32.573Z,12.00
2022-11-28T03:41:03.289Z,14.32
2022-11-28T03:43:36.911Z,12.93
2022-11-28T03:46:08.684Z,11.13
2022-11-28T03:48:40.420Z,14.27
2022-11-28T03:51:16.316Z,10.55
2022-11-28T03:53:59.668Z,11.20
2022-11-28T03:56:45.903Z,11.23
2022-11-28T03:59:26.519Z,12.47
2022-11-28T04:02:11.356Z,13.35
2022-11-28T04:04:59.937Z,12.88
2022-11-28T04:07:54.586Z,10.98
2022-11-28T04:10:41.786Z,11.82
2022-11-28T04:16:01.904Z,9.88
2022-11-28T04:18:51.627Z,9.38
2022-11-28T04:21:24.165Z,11.85
2022-11-28T04:23:55.248Z,14.23
2022-11-28T04:26:33.868Z,13.32
2022-11-28T04:29:08.363Z,10.38
2022-11-28T04:31:36.880Z,11.27
2022-11-28T04:34:09.196Z,10.38
2022-11-28T04:36:39.625Z,8.32
2022-11-28T04:39:13.141Z,9.40
2022-11-28T04:41:45.898Z,11.40
2022-11-28T04:44:19.848Z,8.27
2022-11-28T04:46:52.865Z,8.57
2022-11-28T04:49:19.915Z,6.68
2022-11-28T04:51:57.113Z,9.43
2022-11-28T04:54:35.502Z,7.25
2022-11-28T04:57:14.821Z,9.30
2022-11-28T04:59:43.261Z,8.15
2022-11-28T05:02:12.271Z,7.50
2022-11-28T05:04:39.565Z,8.30
2022-11-28T05:07:08.581Z,8.07
2022-11-28T05:09:36.457Z,7.47
2022-11-28T05:12:03.544Z,10.13
2022-11-28T05:14:30.511Z,9.63
2022-11-28T05:16:57.420Z,8.88
2022-11-28T05:19:24.431Z,10.80
2022-11-28T05:21:53.275Z,8.20
2022-11-28T05:24:22.275Z,16.02
2022-11-28T05:26:49.578Z,9.15
2022-11-28T05:29:16.916Z,13.20
2022-11-28T05:31:43.998Z,10.45
2022-11-28T05:34:10.981Z,10.45
2022-11-28T05:36:37.855Z,12.40
2022-11-28T05:39:04.736Z,12.30
2022-11-28T05:41:33.008Z,13.18
2022-11-28T05:44:01.333Z,11.27
2022-11-28T05:46:29.721Z,11.90
2022-11-28T05:48:57.304Z,12.07
2022-11-28T05:51:24.791Z,14.18
2022-11-28T05:53:51.785Z,12.90
2022-11-28T05:56:20.606Z,16.63
2022-11-28T05:58:47.585Z,17.55
2022-11-28T06:01:20.305Z,13.55
2022-11-28T06:03:47.662Z,15.07
2022-11-28T06:06:18.543Z,16.90
2022-11-28T06:08:46.916Z,14.82
2022-11-28T06:11:15.073Z,12.02
2022-11-28T06:13:43.474Z,10.70
2022-11-28T06:16:12.390Z,12.68
2022-11-28T06:18:40.113Z,13.32
2022-11-28T06:21:09.649Z,12.38
2022-11-28T06:23:37.464Z,14.80
2022-11-28T06:26:09.899Z,11.05
2022-11-28T06:28:37.362Z,11.77
2022-11-28T06:31:05.262Z,15.07
2022-11-28T06:33:32.576Z,10.52
2022-11-28T06:36:04.495Z,13.82
2022-11-28T06:38:31.441Z,9.32
2022-11-28T06:41:04.495Z,12.18
2022-11-28T06:43:32.052Z,10.13
2022-11-28T06:45:59.045Z,9.95
2022-11-28T06:48:26.712Z,10.75
2022-11-28T06:50:53.897Z,10.48
2022-11-28T06:53:20.942Z,11.75
2022-11-28T06:55:47.928Z,12.80
2022-11-28T06:58:14.908Z,11.38
2022-11-28T07:00:41.977Z,9.93
2022-11-28T07:03:08.962Z,10.52
2022-11-28T07:05:35.896Z,10.45
2022-11-28T07:08:02.812Z,10.82
2022-11-28T07:10:30.146Z,10.13
2022-11-28T07:13:04.882Z,9.60
2022-11-28T07:15:32.480Z,9.82
2022-11-28T07:17:59.413Z,11.70
2022-11-28T07:20:26.346Z,11.93
2022-11-28T07:22:53.400Z,9.00
2022-11-28T07:25:20.523Z,10.18
2022-11-28T07:27:47.473Z,8.07
2022-11-28T07:30:14.557Z,11.98
2022-11-28T07:32:41.766Z,9.55
2022-11-28T07:35:09.115Z,10.25
2022-11-28T07:37:36.481Z,11.93
2022-11-28T07:40:05.125Z,9.80
2022-11-28T07:42:32.091Z,10.65
2022-11-28T07:45:05.485Z,10.00
2022-11-28T07:47:32.504Z,11.65
2022-11-28T07:49:59.393Z,8.45
2022-11-28T07:52:26.309Z,11.25
2022-11-28T07:54:53.245Z,11.13
2022-11-28T07:57:20.295Z,12.57
2022-11-28T07:59:47.206Z,8.13
2022-11-28T08:02:14.292Z,9.23
2022-11-28T08:04:48.380Z,10.15
2022-11-28T08:07:17.427Z,9.60
2022-11-28T08:09:44.849Z,10.65
2022-11-28T08:12:11.931Z,9.30
2022-11-28T08:14:38.862Z,9.55
2022-11-28T08:17:05.783Z,11.57
2022-11-28T08:19:35.383Z,11.75
2022-11-28T08:22:02.751Z,11.90
2022-11-28T08:24:29.679Z,8.23
2022-11-28T08:26:57.288Z,11.82
2022-11-28T08:29:24.183Z,11.40
2022-11-28T08:31:51.131Z,10.07
2022-11-28T08:34:18.055Z,10.00
2022-11-28T08:36:45.057Z,14.25
2022-11-28T08:39:27.795Z,9.40
2022-11-28T08:41:59.705Z,10.55
2022-11-28T08:44:30.168Z,9.68
2022-11-28T08:46:57.467Z,8.55
2022-11-28T08:49:24.405Z,8.30
2022-11-28T08:51:51.379Z,8.98
2022-11-28T08:54:18.337Z,10.57
2022-11-28T08:56:47.967Z,9.98
2022-11-28T08:59:14.967Z,8.45
2022-11-28T09:01:41.921Z,8.50
2022-11-28T09:04:08.981Z,10.07
2022-11-28T09:06:39.330Z,9.07
2022-11-28T09:09:06.428Z,9.00
2022-11-28T09:11:33.461Z,10.00
2022-11-28T09:14:00.687Z,7.63
2022-11-28T09:16:27.841Z,7.88
2022-11-28T09:18:57.612Z,8.30
2022-11-28T09:21:24.623Z,9.88
2022-11-28T09:23:54.450Z,9.85
2022-11-28T09:26:24.738Z,9.82
2022-11-28T09:28:52.434Z,7.75
2022-11-28T09:31:20.683Z,9.68
2022-11-28T09:33:49.559Z,9.07
2022-11-28T09:36:22.261Z,7.00
2022-11-28T09:38:49.898Z,7.30
2022-11-28T09:41:28.857Z,9.40
2022-11-28T09:43:59.039Z,10.00
2022-11-28T10:18:58.128Z,7.38
2022-11-28T10:21:37.318Z,6.20
2022-11-28T10:24:11.976Z,7.32
2022-11-28T10:26:44.584Z,6.75
2022-11-28T10:29:26.666Z,7.30
2022-11-28T10:31:59.986Z,8.13
2022-11-28T10:34:34.912Z,7.70
2022-11-28T10:37:11.145Z,6.88
2022-11-28T10:39:43.389Z,11.77
2022-11-28T10:42:35.642Z,10.02
2022-11-28T10:45:05.261Z,8.68
2022-11-28T10:47:50.318Z,9.45
2022-11-28T10:50:47.829Z,8.98
2022-11-28T10:53:14.680Z,9.77
2022-11-28T10:56:14.238Z,10.00
2022-11-28T10:58:47.005Z,9.05
2022-11-28T11:01:14.225Z,8.27
2022-11-28T11:03:41.842Z,8.82
2022-11-28T11:06:09.191Z,8.15
2022-11-28T11:08:38.166Z,9.73
2022-11-28T11:11:19.402Z,9.32
2022-11-28T11:14:03.043Z,10.43
2022-11-28T11:16:56.538Z,9.90
2022-11-28T11:19:23.429Z,9.73
2022-11-28T11:22:21.148Z,12.90
2022-11-28T11:25:12.929Z,11.43
2022-11-28T11:27:51.840Z,10.90
2022-11-28T11:30:35.108Z,11.57
2022-11-28T11:33:05.980Z,10.68
2022-11-28T11:35:45.029Z,12.07
2022-11-28T11:38:20.817Z,11.00
2022-11-28T11:40:52.028Z,14.77
2022-11-28T11:43:24.638Z,12.55
2022-11-28T11:46:10.298Z,13.20
2022-11-28T11:48:39.618Z,11.73
2022-11-28T11:51:08.143Z,12.52
2022-11-28T11:53:35.100Z,10.65
2022-11-28T11:56:03.857Z,11.07
2022-11-28T11:58:52.912Z,11.73
2022-11-28T12:01:21.796Z,11.00
2022-11-28T12:03:51.521Z,13.23
2022-11-28T12:06:25.249Z,9.32
2022-11-28T12:08:54.002Z,13.35
2022-11-28T12:11:32.003Z,13.00
2022-11-28T12:14:13.684Z,10.77
2022-11-28T12:17:00.576Z,11.43
2022-11-28T12:19:46.015Z,12.35
2022-11-28T12:22:25.129Z,13.20
2022-11-28T12:25:11.776Z,13.77
2022-11-28T12:27:50.330Z,12.82
2022-11-28T12:30:20.378Z,12.40
2022-11-28T12:33:06.092Z,18.13
2022-11-28T12:35:42.438Z,12.75
2022-11-28T12:38:15.200Z,13.15
2022-11-28T12:40:52.071Z,12.23
2022-11-28T12:43:24.853Z,10.45
2022-11-28T12:46:23.330Z,10.32
2022-11-28T12:49:12.273Z,11.88
2022-11-28T12:52:04.030Z,10.35
2022-11-28T12:55:01.504Z,13.68
2022-11-28T12:57:50.543Z,9.27
2022-11-28T13:00:28.009Z,14.05
2022-11-28T13:03:13.108Z,10.65
2022-11-28T13:05:58.210Z,14.07
2022-11-28T13:08:28.087Z,13.57
2022-11-28T13:11:18.182Z,10.82
2022-11-28T13:13:49.864Z,10.38
2022-11-28T13:16:26.432Z,11.05
2022-11-28T13:19:16.880Z,10.52
2022-11-28T13:21:49.668Z,10.70
2022-11-28T13:24:25.541Z,9.93
2022-11-28T13:27:05.887Z,11.68
2022-11-28T13:29:56.713Z,12.65
2022-11-28T13:32:55.321Z,14.70
2022-11-28T13:35:23.830Z,10.00
2022-11-28T13:40:52.796Z,10.00
2022-11-28T13:43:22.538Z,10.98
2022-11-28T13:45:52.628Z,9.52
2022-11-28T13:49:13.251Z,10.18
2022-11-28T13:51:33.669Z,8.43
2022-11-28T13:54:19.394Z,9.02
2022-11-28T13:57:11.167Z,12.40
2022-11-28T13:59:38.731Z,9.70
2022-11-28T14:02:25.872Z,9.73
2022-11-28T14:04:52.940Z,13.35
2022-11-28T14:07:28.038Z,9.00
2022-11-28T14:10:09.789Z,10.65
2022-11-28T14:13:05.613Z,10.57
2022-11-28T14:15:53.384Z,9.10
2022-11-28T14:18:48.289Z,10.68
2022-11-28T14:24:22.195Z,10.68
2022-11-28T14:26:58.954Z,9.18
2022-11-28T14:29:38.679Z,7.05
2022-11-28T14:32:30.029Z,9.00
2022-11-28T14:34:54.875Z,9.57
2022-11-28T14:37:22.098Z,9.88
2022-11-28T14:39:50.706Z,7.38
2022-11-28T14:42:37.201Z,9.02
2022-11-28T14:45:49.593Z,9.02
2022-11-28T14:48:22.380Z,9.55
2022-11-28T14:50:57.556Z,8.25
2022-11-28T14:53:33.958Z,8.63
2022-11-28T14:56:16.048Z,8.43
2022-11-28T14:58:48.014Z,11.05
2022-11-28T15:01:25.419Z,8.80
2022-11-28T15:03:59.202Z,6.57
2022-11-28T15:06:36.166Z,9.45
2022-11-28T15:09:07.788Z,9.25
2022-11-28T15:11:59.634Z,8.60
2022-11-28T15:14:29.222Z,9.55
2022-11-28T15:17:00.667Z,9.15
2022-11-28T15:19:33.186Z,8.32
2022-11-28T15:22:00.773Z,8.23
2022-11-28T15:24:30.762Z,8.02
2022-11-28T15:27:07.129Z,9.40
2022-11-28T15:29:35.697Z,10.80
2022-11-28T15:32:04.129Z,11.32
2022-11-28T15:34:33.604Z,9.02
2022-11-28T15:37:04.725Z,9.07
2022-11-28T15:39:39.992Z,7.93
2022-11-28T15:42:25.068Z,9.25
2022-11-28T15:45:03.865Z,8.95
2022-11-28T15:47:31.452Z,8.57
2022-11-28T15:50:05.653Z,10.77
2022-11-28T15:52:32.851Z,9.13
2022-11-28T15:55:00.169Z,9.50
2022-11-28T15:57:28.658Z,8.50
2022-11-28T15:59:56.698Z,9.15
2022-11-28T16:02:29.492Z,9.02
2022-11-28T16:05:11.359Z,10.20
2022-11-28T16:07:43.346Z,8.40
2022-11-28T16:10:22.247Z,9.07
2022-11-28T16:12:49.888Z,11.45
2022-11-28T16:15:22.448Z,9.80
2022-11-28T16:17:49.886Z,9.52
2022-11-28T16:20:23.542Z,7.63
2022-11-28T16:22:50.524Z,7.20
2022-11-28T16:25:23.999Z,8.32
2022-11-28T16:27:53.445Z,8.52
2022-11-28T16:30:23.710Z,12.18
2022-11-28T16:32:52.820Z,8.82
2022-11-28T16:35:31.750Z,8.77
2022-11-28T16:38:05.998Z,10.25
2022-11-28T16:40:33.321Z,7.78
2022-11-28T16:43:03.030Z,9.93
2022-11-28T16:45:32.886Z,9.45
2022-11-28T16:48:15.424Z,11.48
2022-11-28T16:51:02.171Z,8.07
2022-11-28T16:53:55.779Z,9.38
2022-11-28T16:56:31.591Z,9.35
2022-11-28T16:59:09.160Z,9.52
2022-11-28T17:01:36.398Z,9.18
2022-11-28T17:04:04.182Z,9.68
2022-11-28T17:06:37.689Z,7.30
2022-11-28T17:09:11.193Z,10.50
2022-11-28T17:11:43.130Z,10.45
2022-11-28T17:14:13.850Z,10.32
2022-11-28T17:16:42.168Z,9.80
2022-11-28T17:19:09.440Z,11.48
2022-11-28T17:21:42.071Z,10.48
2022-11-28T17:24:23.370Z,9.68
2022-11-28T17:26:51.567Z,11.30
2022-11-28T17:29:19.557Z,8.88
2022-11-28T17:31:48.368Z,11.00
2022-11-28T17:34:20.970Z,12.13
2022-11-28T17:36:48.143Z,11.75
2022-11-28T17:39:15.427Z,10.20
2022-11-28T17:41:42.945Z,11.63
2022-11-28T17:44:21.957Z,10.45
2022-11-28T17:46:50.525Z,11.68
2022-11-28T17:49:18.487Z,10.80
2022-11-28T17:51:45.545Z,10.55
2022-11-28T17:54:16.489Z,13.13
2022-11-28T17:56:50.167Z,11.05
2022-11-28T17:59:20.363Z,11.82
2022-11-28T18:01:48.540Z,11.27
2022-11-28T18:04:15.807Z,14.48
2022-11-28T18:06:44.677Z,11.13
2022-11-28T18:09:12.769Z,10.18
2022-11-28T18:11:40.841Z,12.05
2022-11-28T18:14:08.989Z,12.98
2022-11-28T18:16:36.454Z,11.55
2022-11-28T18:19:04.432Z,13.70
2022-11-28T18:21:32.337Z,15.07
2022-11-28T18:23:59.401Z,12.73
2022-11-28T18:26:26.888Z,13.05
2022-11-28T18:28:54.682Z,13.65
2022-11-28T18:31:25.225Z,12.45
2022-11-28T18:33:56.244Z,17.75
2022-11-28T18:36:27.771Z,15.55
2022-11-28T18:39:02.359Z,14.13
2022-11-28T18:41:30.395Z,14.13
2022-11-28T18:44:03.548Z,14.10
2022-11-28T18:46:31.651Z,14.02
2022-11-28T18:48:58.787Z,15.57
2022-11-28T18:51:31.183Z,15.95
2022-11-28T18:53:58.705Z,12.43
2022-11-28T18:56:26.656Z,8.93
2022-11-28T18:58:54.657Z,14.85
2022-11-28T19:01:29.139Z,14.35
2022-11-28T19:04:02.201Z,12.15
2022-11-28T19:06:30.150Z,11.98
2022-11-28T19:08:59.689Z,13.05
2022-11-28T19:11:28.699Z,11.63
2022-11-28T19:13:57.137Z,13.30
2022-11-28T19:16:27.507Z,10.98
2022-11-28T19:18:55.826Z,12.07
2022-11-28T19:21:25.765Z,12.70
2022-11-28T19:23:55.273Z,13.10
2022-11-28T19:26:25.483Z,10.95
2022-11-28T19:28:53.910Z,11.73
2022-11-28T19:31:29.289Z,11.88
2022-11-28T19:34:01.162Z,14.85
2022-11-28T19:36:37.564Z,12.25
2022-11-28T19:39:05.401Z,9.23
2022-11-28T19:41:32.826Z,16.52
2022-11-28T19:44:00.580Z,11.80
2022-11-28T19:46:35.159Z,11.05
2022-11-28T19:49:06.709Z,10.88
2022-11-28T19:51:34.904Z,11.13
2022-11-28T19:54:03.786Z,10.60
2022-11-28T19:56:33.371Z,10.25
2022-11-28T19:59:00.653Z,10.52
2022-11-28T20:01:28.383Z,9.52
2022-11-28T20:03:55.705Z,10.45
2022-11-28T20:06:31.108Z,10.00
2022-11-28T20:09:01.435Z,11.13
2022-11-28T20:11:31.911Z,10.15
2022-11-28T20:14:06.615Z,10.20
2022-11-28T20:16:35.761Z,12.98
2022-11-28T20:19:04.815Z,10.27
2022-11-28T20:21:33.114Z,10.88
2022-11-28T20:24:07.450Z,12.43
2022-11-28T20:26:42.208Z,12.68
2022-11-28T20:29:12.189Z,11.50
2022-11-28T20:31:46.042Z,11.27
2022-11-28T20:34:17.549Z,11.43
2022-11-28T20:36:45.640Z,11.57
2022-11-28T20:39:13.331Z,12.80
2022-11-28T20:41:40.377Z,11.90
2022-11-28T20:44:07.603Z,10.77
2022-11-28T20:46:35.706Z,12.95
2022-11-28T20:49:05.796Z,12.05
2022-11-28T20:51:34.078Z,13.38
2022-11-28T20:54:01.987Z,13.35
2022-11-28T20:56:31.891Z,9.48
2022-11-28T20:59:00.883Z,11.68
2022-11-28T21:01:31.130Z,11.30
2022-11-28T21:03:58.535Z,13.55
2022-11-28T21:06:25.625Z,12.15
2022-11-28T21:08:52.635Z,11.88
2022-11-28T21:11:50.087Z,10.98
2022-11-28T21:14:08.471Z,12.32
2022-11-28T21:16:35.480Z,12.68
2022-11-28T21:19:06.493Z,10.23
2022-11-28T21:21:34.411Z,12.77
2022-11-28T21:24:04.662Z,13.70
2022-11-28T21:26:37.592Z,12.13
2022-11-28T21:29:09.390Z,12.65
2022-11-28T21:31:41.392Z,13.93
2022-11-28T21:34:08.349Z,11.25
2022-11-28T21:36:35.364Z,10.52
2022-11-28T21:39:02.406Z,13.15
2022-11-28T21:41:31.662Z,12.27
2022-11-28T21:43:59.557Z,12.00
2022-11-28T21:46:27.739Z,15.77
2022-11-28T21:48:55.021Z,11.20
2022-11-28T21:51:24.042Z,12.60
2022-11-28T21:53:51.891Z,10.77
2022-11-28T21:56:19.305Z,13.48
2022-11-28T21:58:46.181Z,14.40
2022-11-28T22:01:14.883Z,13.70
2022-11-28T22:03:43.906Z,13.90
2022-11-28T22:06:17.825Z,13.90
2022-11-28T22:08:45.551Z,12.50
2022-11-28T22:11:13.532Z,13.13
2022-11-28T22:13:42.851Z,10.80
2022-11-28T22:16:12.396Z,12.43
2022-11-28T22:18:39.355Z,13.65
2022-11-28T22:21:22.548Z,12.65
2022-11-28T22:23:58.191Z,10.40
2022-11-28T22:26:25.115Z,11.43
2022-11-28T22:28:53.844Z,9.55
2022-11-28T22:31:23.338Z,11.13
2022-11-28T22:33:50.499Z,10.13
2022-11-28T22:36:19.861Z,9.80
2022-11-28T22:38:49.023Z,9.93
2022-11-28T22:41:27.922Z,10.38
2022-11-28T22:43:57.898Z,8.95
2022-11-28T22:46:24.987Z,8.60
2022-11-28T22:48:52.238Z,8.30
2022-11-28T22:51:24.655Z,8.88
2022-11-28T22:53:56.785Z,9.95
2022-11-28T22:56:26.491Z,8.63
2022-11-28T22:58:54.074Z,8.13
2022-11-28T23:01:24.373Z,7.97
2022-11-28T23:03:52.188Z,8.02
2022-11-28T23:06:21.670Z,8.13
2022-11-28T23:08:54.495Z,7.93
2022-11-28T23:11:24.112Z,7.90
2022-11-28T23:13:52.331Z,8.60
2022-11-28T23:16:19.510Z,8.93
2022-11-28T23:18:51.674Z,9.40
2022-11-28T23:21:20.029Z,7.32
2022-11-28T23:23:47.707Z,7.43
2022-11-28T23:26:26.393Z,7.05
2022-11-28T23:28:54.255Z,6.80
2022-11-28T23:31:27.700Z,6.88
2022-11-28T23:33:55.673Z,6.95
2022-11-28T23:36:28.541Z,6.13
2022-11-28T23:38:58.462Z,7.68
2022-11-28T23:41:26.443Z,5.70
2022-11-28T23:43:53.443Z,8.27
2022-11-28T23:46:23.667Z,6.55
2022-11-28T23:48:50.996Z,7.72
2022-11-28T23:51:20.117Z,7.07
2022-11-28T23:53:47.215Z,6.28
2022-11-28T23:56:19.898Z,8.77
2022-11-28T23:58:47.626Z,7.40
